sensor_id;sensor_type;location;lat;lon;timestamp;P1;durP1;ratioP1;P2;durP2;ratioP2
2259;SDS011;333;48.800;9.530;2022-08-21T00:02:01;8.43;;;6.13;;
2259;SDS011;333;48.800;9.530;2022-08-21T00:04:29;6.67;;;5.90;;
2259;SDS011;333;48.800;9.530;2022-08-21T00:06:56;6.00;;;5.50;;
2259;SDS011;333;48.800;9.530;2022-08-21T00:09:23;6.90;;;6.30;;
2259;SDS011;333;48.800;9.530;2022-08-21T00:11:50;12.80;;;6.27;;
2259;SDS011;333;48.800;9.530;2022-08-21T00:14:18;15.50;;;5.23;;
2259;SDS011;333;48.800;9.530;2022-08-21T00:16:46;10.20;;;6.63;;
2259;SDS011;333;48.800;9.530;2022-08-21T00:19:13;7.80;;;6.33;;
2259;SDS011;333;48.800;9.530;2022-08-21T00:21:40;8.27;;;5.60;;
2259;SDS011;333;48.800;9.530;2022-08-21T00:24:08;7.07;;;5.77;;
2259;SDS011;333;48.800;9.530;2022-08-21T00:26:35;9.00;;;6.83;;
2259;SDS011;333;48.800;9.530;2022-08-21T00:29:02;11.73;;;7.20;;
2259;SDS011;333;48.800;9.530;2022-08-21T00:31:29;7.97;;;5.93;;
2259;SDS011;333;48.800;9.530;2022-08-21T00:33:58;6.87;;;6.27;;
2259;SDS011;333;48.800;9.530;2022-08-21T00:36:25;7.47;;;6.77;;
2259;SDS011;333;48.800;9.530;2022-08-21T00:38:52;6.53;;;5.93;;
2259;SDS011;333;48.800;9.530;2022-08-21T00:41:19;12.77;;;6.40;;
2259;SDS011;333;48.800;9.530;2022-08-21T00:43:48;8.30;;;5.47;;
2259;SDS011;333;48.800;9.530;2022-08-21T00:46:16;6.80;;;5.20;;
2259;SDS011;333;48.800;9.530;2022-08-21T00:48:43;7.20;;;5.80;;
2259;SDS011;333;48.800;9.530;2022-08-21T00:51:16;6.87;;;5.43;;
2259;SDS011;333;48.800;9.530;2022-08-21T00:53:47;6.30;;;5.70;;
2259;SDS011;333;48.800;9.530;2022-08-21T00:56:15;6.50;;;5.87;;
2259;SDS011;333;48.800;9.530;2022-08-21T00:58:42;6.67;;;5.10;;
2259;SDS011;333;48.800;9.530;2022-08-21T01:01:11;7.20;;;4.93;;
2259;SDS011;333;48.800;9.530;2022-08-21T01:03:38;8.00;;;6.07;;
2259;SDS011;333;48.800;9.530;2022-08-21T01:06:06;6.03;;;5.50;;
2259;SDS011;333;48.800;9.530;2022-08-21T01:08:35;7.43;;;5.77;;
2259;SDS011;333;48.800;9.530;2022-08-21T01:11:02;6.13;;;5.53;;
2259;SDS011;333;48.800;9.530;2022-08-21T01:13:30;6.60;;;6.00;;
2259;SDS011;333;48.800;9.530;2022-08-21T01:15:58;9.07;;;5.60;;
2259;SDS011;333;48.800;9.530;2022-08-21T01:18:26;8.77;;;7.63;;
2259;SDS011;333;48.800;9.530;2022-08-21T01:21:02;5.47;;;4.93;;
2259;SDS011;333;48.800;9.530;2022-08-21T01:23:30;6.37;;;5.77;;
2259;SDS011;333;48.800;9.530;2022-08-21T01:25:57;8.17;;;6.20;;
2259;SDS011;333;48.800;9.530;2022-08-21T01:28:24;12.10;;;5.27;;
2259;SDS011;333;48.800;9.530;2022-08-21T01:30:52;10.30;;;6.37;;
2259;SDS011;333;48.800;9.530;2022-08-21T01:33:20;5.73;;;5.23;;
2259;SDS011;333;48.800;9.530;2022-08-21T01:35:49;5.40;;;4.80;;
2259;SDS011;333;48.800;9.530;2022-08-21T01:38:17;10.00;;;6.50;;
2259;SDS011;333;48.800;9.530;2022-08-21T01:40:45;20.33;;;6.63;;
2259;SDS011;333;48.800;9.530;2022-08-21T01:43:12;18.33;;;6.63;;
2259;SDS011;333;48.800;9.530;2022-08-21T01:45:39;20.83;;;5.97;;
2259;SDS011;333;48.800;9.530;2022-08-21T01:48:06;6.50;;;4.70;;
2259;SDS011;333;48.800;9.530;2022-08-21T01:50:33;7.93;;;3.70;;
2259;SDS011;333;48.800;9.530;2022-08-21T01:53:00;4.23;;;3.83;;
2259;SDS011;333;48.800;9.530;2022-08-21T01:55:29;7.03;;;4.67;;
2259;SDS011;333;48.800;9.530;2022-08-21T01:57:56;5.20;;;3.67;;
2259;SDS011;333;48.800;9.530;2022-08-21T02:00:25;41.63;;;5.00;;
2259;SDS011;333;48.800;9.530;2022-08-21T02:02:52;7.50;;;5.57;;
2259;SDS011;333;48.800;9.530;2022-08-21T02:05:20;10.30;;;4.80;;
2259;SDS011;333;48.800;9.530;2022-08-21T02:07:48;5.93;;;4.97;;
2259;SDS011;333;48.800;9.530;2022-08-21T02:10:18;10.90;;;5.37;;
2259;SDS011;333;48.800;9.530;2022-08-21T02:12:47;4.93;;;4.40;;
2259;SDS011;333;48.800;9.530;2022-08-21T02:15:14;4.37;;;3.97;;
2259;SDS011;333;48.800;9.530;2022-08-21T02:17:43;13.10;;;5.17;;
2259;SDS011;333;48.800;9.530;2022-08-21T02:20:11;18.87;;;5.37;;
2259;SDS011;333;48.800;9.530;2022-08-21T02:22:41;10.43;;;4.07;;
2259;SDS011;333;48.800;9.530;2022-08-21T02:25:08;25.13;;;6.40;;
2259;SDS011;333;48.800;9.530;2022-08-21T02:27:39;11.13;;;4.70;;
2259;SDS011;333;48.800;9.530;2022-08-21T02:30:10;16.83;;;4.80;;
2259;SDS011;333;48.800;9.530;2022-08-21T02:32:37;8.40;;;4.83;;
2259;SDS011;333;48.800;9.530;2022-08-21T02:35:04;7.60;;;4.27;;
2259;SDS011;333;48.800;9.530;2022-08-21T02:37:32;5.60;;;4.50;;
2259;SDS011;333;48.800;9.530;2022-08-21T02:40:00;4.93;;;3.43;;
2259;SDS011;333;48.800;9.530;2022-08-21T02:42:27;13.53;;;5.80;;
2259;SDS011;333;48.800;9.530;2022-08-21T02:44:55;17.47;;;5.00;;
2259;SDS011;333;48.800;9.530;2022-08-21T02:47:23;16.10;;;5.40;;
2259;SDS011;333;48.800;9.530;2022-08-21T02:49:51;10.60;;;5.00;;
2259;SDS011;333;48.800;9.530;2022-08-21T02:52:19;15.87;;;6.07;;
2259;SDS011;333;48.800;9.530;2022-08-21T02:54:46;13.53;;;5.17;;
2259;SDS011;333;48.800;9.530;2022-08-21T02:57:13;13.60;;;5.70;;
2259;SDS011;333;48.800;9.530;2022-08-21T02:59:41;10.07;;;5.47;;
2259;SDS011;333;48.800;9.530;2022-08-21T03:02:08;21.83;;;6.90;;
2259;SDS011;333;48.800;9.530;2022-08-21T03:04:37;15.60;;;6.00;;
2259;SDS011;333;48.800;9.530;2022-08-21T03:07:05;11.07;;;4.97;;
2259;SDS011;333;48.800;9.530;2022-08-21T03:09:32;7.73;;;5.30;;
2259;SDS011;333;48.800;9.530;2022-08-21T03:11:59;9.00;;;5.27;;
2259;SDS011;333;48.800;9.530;2022-08-21T03:14:26;8.87;;;4.10;;
2259;SDS011;333;48.800;9.530;2022-08-21T03:16:53;13.73;;;4.80;;
2259;SDS011;333;48.800;9.530;2022-08-21T03:19:20;5.13;;;4.30;;
2259;SDS011;333;48.800;9.530;2022-08-21T03:21:49;6.23;;;4.40;;
2259;SDS011;333;48.800;9.530;2022-08-21T03:24:16;6.33;;;4.60;;
2259;SDS011;333;48.800;9.530;2022-08-21T03:26:43;10.87;;;3.67;;
2259;SDS011;333;48.800;9.530;2022-08-21T03:29:10;6.87;;;5.03;;
2259;SDS011;333;48.800;9.530;2022-08-21T03:31:38;10.03;;;5.13;;
2259;SDS011;333;48.800;9.530;2022-08-21T03:34:05;7.27;;;5.27;;
2259;SDS011;333;48.800;9.530;2022-08-21T03:36:32;7.10;;;4.60;;
2259;SDS011;333;48.800;9.530;2022-08-21T03:39:00;5.77;;;5.23;;
2259;SDS011;333;48.800;9.530;2022-08-21T03:41:28;13.60;;;5.27;;
2259;SDS011;333;48.800;9.530;2022-08-21T03:43:55;5.50;;;5.00;;
2259;SDS011;333;48.800;9.530;2022-08-21T03:46:22;12.47;;;5.23;;
2259;SDS011;333;48.800;9.530;2022-08-21T03:48:49;5.00;;;4.53;;
2259;SDS011;333;48.800;9.530;2022-08-21T03:51:17;12.50;;;5.77;;
2259;SDS011;333;48.800;9.530;2022-08-21T03:53:44;13.37;;;5.53;;
2259;SDS011;333;48.800;9.530;2022-08-21T03:56:13;10.27;;;5.80;;
2259;SDS011;333;48.800;9.530;2022-08-21T03:58:41;12.63;;;5.10;;
2259;SDS011;333;48.800;9.530;2022-08-21T04:01:09;25.87;;;4.80;;
2259;SDS011;333;48.800;9.530;2022-08-21T04:03:37;11.90;;;4.07;;
2259;SDS011;333;48.800;9.530;2022-08-21T04:06:04;14.20;;;4.20;;
2259;SDS011;333;48.800;9.530;2022-08-21T04:08:32;16.17;;;4.67;;
2259;SDS011;333;48.800;9.530;2022-08-21T04:11:00;9.40;;;4.47;;
2259;SDS011;333;48.800;9.530;2022-08-21T04:13:28;25.80;;;7.20;;
2259;SDS011;333;48.800;9.530;2022-08-21T04:15:56;23.70;;;5.47;;
2259;SDS011;333;48.800;9.530;2022-08-21T04:18:24;18.90;;;5.97;;
2259;SDS011;333;48.800;9.530;2022-08-21T04:20:51;26.43;;;6.53;;
2259;SDS011;333;48.800;9.530;2022-08-21T04:23:19;36.07;;;7.33;;
2259;SDS011;333;48.800;9.530;2022-08-21T04:25:46;21.13;;;5.77;;
2259;SDS011;333;48.800;9.530;2022-08-21T04:28:13;7.63;;;5.30;;
2259;SDS011;333;48.800;9.530;2022-08-21T04:30:42;21.47;;;6.47;;
2259;SDS011;333;48.800;9.530;2022-08-21T04:33:09;13.30;;;5.07;;
2259;SDS011;333;48.800;9.530;2022-08-21T04:35:36;26.33;;;5.77;;
2259;SDS011;333;48.800;9.530;2022-08-21T04:38:03;15.90;;;5.87;;
2259;SDS011;333;48.800;9.530;2022-08-21T04:40:30;7.10;;;4.60;;
2259;SDS011;333;48.800;9.530;2022-08-21T04:43:00;12.40;;;5.60;;
2259;SDS011;333;48.800;9.530;2022-08-21T04:45:28;5.47;;;4.93;;
2259;SDS011;333;48.800;9.530;2022-08-21T04:47:58;5.93;;;4.80;;
2259;SDS011;333;48.800;9.530;2022-08-21T04:50:27;5.67;;;5.07;;
2259;SDS011;333;48.800;9.530;2022-08-21T04:52:55;7.83;;;5.23;;
2259;SDS011;333;48.800;9.530;2022-08-21T04:55:22;9.20;;;4.70;;
2259;SDS011;333;48.800;9.530;2022-08-21T04:57:50;8.90;;;4.40;;
2259;SDS011;333;48.800;9.530;2022-08-21T05:00:19;17.03;;;6.13;;
2259;SDS011;333;48.800;9.530;2022-08-21T05:02:47;9.07;;;5.17;;
2259;SDS011;333;48.800;9.530;2022-08-21T05:05:18;7.70;;;4.63;;
2259;SDS011;333;48.800;9.530;2022-08-21T05:07:45;7.33;;;4.93;;
2259;SDS011;333;48.800;9.530;2022-08-21T05:10:13;8.30;;;5.83;;
2259;SDS011;333;48.800;9.530;2022-08-21T05:12:40;6.77;;;5.10;;
2259;SDS011;333;48.800;9.530;2022-08-21T05:15:08;21.60;;;6.53;;
2259;SDS011;333;48.800;9.530;2022-08-21T05:17:37;6.53;;;5.10;;
2259;SDS011;333;48.800;9.530;2022-08-21T05:20:04;13.03;;;5.57;;
2259;SDS011;333;48.800;9.530;2022-08-21T05:22:33;16.80;;;5.87;;
2259;SDS011;333;48.800;9.530;2022-08-21T05:25:00;50.30;;;7.00;;
2259;SDS011;333;48.800;9.530;2022-08-21T05:27:27;7.63;;;5.20;;
2259;SDS011;333;48.800;9.530;2022-08-21T05:29:55;7.67;;;5.13;;
2259;SDS011;333;48.800;9.530;2022-08-21T05:32:22;9.20;;;5.33;;
2259;SDS011;333;48.800;9.530;2022-08-21T05:34:49;17.47;;;5.20;;
2259;SDS011;333;48.800;9.530;2022-08-21T05:37:17;7.30;;;5.10;;
2259;SDS011;333;48.800;9.530;2022-08-21T05:39:45;4.37;;;3.97;;
2259;SDS011;333;48.800;9.530;2022-08-21T05:42:12;7.53;;;5.00;;
2259;SDS011;333;48.800;9.530;2022-08-21T05:44:40;6.60;;;6.00;;
2259;SDS011;333;48.800;9.530;2022-08-21T05:47:08;18.33;;;6.30;;
2259;SDS011;333;48.800;9.530;2022-08-21T05:49:35;6.20;;;5.03;;
2259;SDS011;333;48.800;9.530;2022-08-21T05:52:03;5.20;;;4.80;;
2259;SDS011;333;48.800;9.530;2022-08-21T05:54:30;5.47;;;4.97;;
2259;SDS011;333;48.800;9.530;2022-08-21T05:56:59;6.93;;;5.20;;
2259;SDS011;333;48.800;9.530;2022-08-21T05:59:26;7.13;;;4.90;;
2259;SDS011;333;48.800;9.530;2022-08-21T06:01:53;6.30;;;4.37;;
2259;SDS011;333;48.800;9.530;2022-08-21T06:04:21;5.43;;;4.47;;
2259;SDS011;333;48.800;9.530;2022-08-21T06:06:48;4.93;;;4.60;;
2259;SDS011;333;48.800;9.530;2022-08-21T06:09:15;5.80;;;4.80;;
2259;SDS011;333;48.800;9.530;2022-08-21T06:11:42;4.80;;;4.40;;
2259;SDS011;333;48.800;9.530;2022-08-21T06:14:11;6.23;;;5.67;;
2259;SDS011;333;48.800;9.530;2022-08-21T06:16:40;5.70;;;5.20;;
2259;SDS011;333;48.800;9.530;2022-08-21T06:19:08;7.43;;;5.30;;
2259;SDS011;333;48.800;9.530;2022-08-21T06:21:35;11.70;;;4.80;;
2259;SDS011;333;48.800;9.530;2022-08-21T06:24:02;8.10;;;5.10;;
2259;SDS011;333;48.800;9.530;2022-08-21T06:26:30;4.60;;;4.20;;
2259;SDS011;333;48.800;9.530;2022-08-21T06:28:57;6.10;;;5.60;;
2259;SDS011;333;48.800;9.530;2022-08-21T06:31:26;4.60;;;4.20;;
2259;SDS011;333;48.800;9.530;2022-08-21T06:33:53;4.53;;;4.13;;
2259;SDS011;333;48.800;9.530;2022-08-21T06:36:21;5.10;;;4.60;;
2259;SDS011;333;48.800;9.530;2022-08-21T06:38:48;4.30;;;4.00;;
2259;SDS011;333;48.800;9.530;2022-08-21T06:41:15;11.80;;;5.40;;
2259;SDS011;333;48.800;9.530;2022-08-21T06:43:42;5.40;;;4.90;;
2259;SDS011;333;48.800;9.530;2022-08-21T06:46:09;4.30;;;4.00;;
2259;SDS011;333;48.800;9.530;2022-08-21T06:48:38;4.87;;;4.47;;
2259;SDS011;333;48.800;9.530;2022-08-21T06:51:05;4.10;;;3.80;;
2259;SDS011;333;48.800;9.530;2022-08-21T06:53:32;4.57;;;4.27;;
2259;SDS011;333;48.800;9.530;2022-08-21T06:56:00;4.40;;;4.00;;
2259;SDS011;333;48.800;9.530;2022-08-21T06:58:27;4.37;;;4.00;;
2259;SDS011;333;48.800;9.530;2022-08-21T07:00:54;4.23;;;3.93;;
2259;SDS011;333;48.800;9.530;2022-08-21T07:03:24;4.47;;;4.10;;
2259;SDS011;333;48.800;9.530;2022-08-21T07:05:53;5.40;;;4.30;;
2259;SDS011;333;48.800;9.530;2022-08-21T07:08:21;4.40;;;4.00;;
2259;SDS011;333;48.800;9.530;2022-08-21T07:10:49;4.70;;;4.30;;
2259;SDS011;333;48.800;9.530;2022-08-21T07:13:16;4.73;;;4.43;;
2259;SDS011;333;48.800;9.530;2022-08-21T07:15:44;4.53;;;4.20;;
2259;SDS011;333;48.800;9.530;2022-08-21T07:18:11;4.40;;;4.00;;
2259;SDS011;333;48.800;9.530;2022-08-21T07:20:39;4.80;;;4.40;;
2259;SDS011;333;48.800;9.530;2022-08-21T07:23:08;4.73;;;4.33;;
2259;SDS011;333;48.800;9.530;2022-08-21T07:25:36;5.47;;;4.97;;
2259;SDS011;333;48.800;9.530;2022-08-21T07:28:03;4.90;;;4.53;;
2259;SDS011;333;48.800;9.530;2022-08-21T07:30:31;5.17;;;4.77;;
2259;SDS011;333;48.800;9.530;2022-08-21T07:32:58;4.93;;;4.53;;
2259;SDS011;333;48.800;9.530;2022-08-21T07:35:26;4.43;;;4.13;;
2259;SDS011;333;48.800;9.530;2022-08-21T07:37:54;4.77;;;4.37;;
2259;SDS011;333;48.800;9.530;2022-08-21T07:40:22;5.23;;;4.77;;
2259;SDS011;333;48.800;9.530;2022-08-21T07:42:49;5.77;;;5.33;;
2259;SDS011;333;48.800;9.530;2022-08-21T07:45:17;6.13;;;4.80;;
2259;SDS011;333;48.800;9.530;2022-08-21T07:47:45;4.67;;;4.37;;
2259;SDS011;333;48.800;9.530;2022-08-21T07:50:12;5.53;;;5.00;;
2259;SDS011;333;48.800;9.530;2022-08-21T07:52:40;5.17;;;4.67;;
2259;SDS011;333;48.800;9.530;2022-08-21T07:55:07;4.60;;;4.20;;
2259;SDS011;333;48.800;9.530;2022-08-21T07:57:37;4.77;;;4.37;;
2259;SDS011;333;48.800;9.530;2022-08-21T08:00:05;4.00;;;3.70;;
2259;SDS011;333;48.800;9.530;2022-08-21T08:02:33;3.53;;;3.27;;
2259;SDS011;333;48.800;9.530;2022-08-21T08:05:00;4.10;;;3.80;;
2259;SDS011;333;48.800;9.530;2022-08-21T08:07:27;4.53;;;4.23;;
2259;SDS011;333;48.800;9.530;2022-08-21T08:09:54;5.40;;;4.07;;
2259;SDS011;333;48.800;9.530;2022-08-21T08:12:21;4.37;;;4.00;;
2259;SDS011;333;48.800;9.530;2022-08-21T08:14:55;3.93;;;3.50;;
2259;SDS011;333;48.800;9.530;2022-08-21T08:17:22;4.13;;;3.73;;
2259;SDS011;333;48.800;9.530;2022-08-21T08:19:50;3.73;;;3.43;;
2259;SDS011;333;48.800;9.530;2022-08-21T08:22:17;4.00;;;3.70;;
2259;SDS011;333;48.800;9.530;2022-08-21T08:24:45;5.43;;;4.40;;
2259;SDS011;333;48.800;9.530;2022-08-21T08:27:13;4.50;;;4.10;;
2259;SDS011;333;48.800;9.530;2022-08-21T08:29:41;4.43;;;4.10;;
2259;SDS011;333;48.800;9.530;2022-08-21T08:32:10;3.97;;;3.67;;
2259;SDS011;333;48.800;9.530;2022-08-21T08:34:37;4.70;;;4.30;;
2259;SDS011;333;48.800;9.530;2022-08-21T08:37:06;5.90;;;4.67;;
2259;SDS011;333;48.800;9.530;2022-08-21T08:39:34;4.87;;;4.40;;
2259;SDS011;333;48.800;9.530;2022-08-21T08:42:05;4.30;;;3.90;;
2259;SDS011;333;48.800;9.530;2022-08-21T08:44:34;4.93;;;4.10;;
2259;SDS011;333;48.800;9.530;2022-08-21T08:47:02;8.50;;;4.13;;
2259;SDS011;333;48.800;9.530;2022-08-21T08:49:34;5.53;;;3.20;;
2259;SDS011;333;48.800;9.530;2022-08-21T08:52:03;4.80;;;3.70;;
2259;SDS011;333;48.800;9.530;2022-08-21T08:54:33;3.70;;;3.37;;
2259;SDS011;333;48.800;9.530;2022-08-21T08:57:02;6.77;;;4.30;;
2259;SDS011;333;48.800;9.530;2022-08-21T08:59:33;3.87;;;3.50;;
2259;SDS011;333;48.800;9.530;2022-08-21T09:02:03;6.10;;;4.67;;
2259;SDS011;333;48.800;9.530;2022-08-21T09:04:32;5.53;;;4.03;;
2259;SDS011;333;48.800;9.530;2022-08-21T09:07:01;4.70;;;4.40;;
2259;SDS011;333;48.800;9.530;2022-08-21T09:09:36;5.30;;;4.87;;
2259;SDS011;333;48.800;9.530;2022-08-21T09:12:06;10.27;;;4.50;;
2259;SDS011;333;48.800;9.530;2022-08-21T09:14:44;4.93;;;4.30;;
2259;SDS011;333;48.800;9.530;2022-08-21T09:17:18;4.30;;;4.00;;
2259;SDS011;333;48.800;9.530;2022-08-21T09:19:52;4.27;;;3.97;;
2259;SDS011;333;48.800;9.530;2022-08-21T09:22:23;4.17;;;3.87;;
2259;SDS011;333;48.800;9.530;2022-08-21T09:24:57;4.17;;;3.87;;
2259;SDS011;333;48.800;9.530;2022-08-21T09:27:28;4.00;;;3.60;;
2259;SDS011;333;48.800;9.530;2022-08-21T09:29:55;4.27;;;3.90;;
2259;SDS011;333;48.800;9.530;2022-08-21T09:32:24;6.10;;;4.30;;
2259;SDS011;333;48.800;9.530;2022-08-21T09:35:01;4.73;;;3.63;;
2259;SDS011;333;48.800;9.530;2022-08-21T09:37:30;4.73;;;4.30;;
2259;SDS011;333;48.800;9.530;2022-08-21T09:39:59;5.63;;;3.97;;
2259;SDS011;333;48.800;9.530;2022-08-21T09:42:27;4.43;;;3.50;;
2259;SDS011;333;48.800;9.530;2022-08-21T09:45:08;4.87;;;4.17;;
2259;SDS011;333;48.800;9.530;2022-08-21T09:47:36;4.10;;;3.47;;
2259;SDS011;333;48.800;9.530;2022-08-21T09:50:09;3.90;;;3.60;;
2259;SDS011;333;48.800;9.530;2022-08-21T09:52:41;4.73;;;4.27;;
2259;SDS011;333;48.800;9.530;2022-08-21T09:55:13;5.00;;;4.50;;
2259;SDS011;333;48.800;9.530;2022-08-21T09:58:02;5.47;;;3.93;;
2259;SDS011;333;48.800;9.530;2022-08-21T10:00:29;4.10;;;3.70;;
2259;SDS011;333;48.800;9.530;2022-08-21T10:03:07;5.80;;;3.60;;
2259;SDS011;333;48.800;9.530;2022-08-21T10:05:36;4.00;;;3.63;;
2259;SDS011;333;48.800;9.530;2022-08-21T10:08:04;4.30;;;3.90;;
2259;SDS011;333;48.800;9.530;2022-08-21T10:10:32;6.17;;;3.70;;
2259;SDS011;333;48.800;9.530;2022-08-21T10:13:05;4.20;;;3.80;;
2259;SDS011;333;48.800;9.530;2022-08-21T10:15:38;4.97;;;4.00;;
2259;SDS011;333;48.800;9.530;2022-08-21T10:18:10;5.27;;;4.77;;
2259;SDS011;333;48.800;9.530;2022-08-21T10:20:43;7.77;;;3.97;;
2259;SDS011;333;48.800;9.530;2022-08-21T10:23:18;5.60;;;3.30;;
2259;SDS011;333;48.800;9.530;2022-08-21T10:25:48;3.93;;;3.50;;
2259;SDS011;333;48.800;9.530;2022-08-21T10:28:17;4.63;;;3.90;;
2259;SDS011;333;48.800;9.530;2022-08-21T10:30:50;4.27;;;3.50;;
2259;SDS011;333;48.800;9.530;2022-08-21T10:33:22;5.93;;;5.33;;
2259;SDS011;333;48.800;9.530;2022-08-21T10:35:54;6.40;;;3.87;;
2259;SDS011;333;48.800;9.530;2022-08-21T10:41:19;5.37;;;4.00;;
2259;SDS011;333;48.800;9.530;2022-08-21T10:43:52;4.93;;;3.70;;
2259;SDS011;333;48.800;9.530;2022-08-21T10:46:24;7.87;;;4.83;;
2259;SDS011;333;48.800;9.530;2022-08-21T10:48:56;5.50;;;4.50;;
2259;SDS011;333;48.800;9.530;2022-08-21T10:51:26;4.17;;;3.87;;
2259;SDS011;333;48.800;9.530;2022-08-21T10:53:57;4.20;;;3.70;;
2259;SDS011;333;48.800;9.530;2022-08-21T10:56:28;4.30;;;3.90;;
2259;SDS011;333;48.800;9.530;2022-08-21T10:59:00;4.87;;;3.57;;
2259;SDS011;333;48.800;9.530;2022-08-21T11:01:31;3.90;;;3.60;;
2259;SDS011;333;48.800;9.530;2022-08-21T11:04:04;5.13;;;3.70;;
2259;SDS011;333;48.800;9.530;2022-08-21T11:06:37;5.53;;;4.00;;
2259;SDS011;333;48.800;9.530;2022-08-21T11:09:08;4.70;;;4.30;;
2259;SDS011;333;48.800;9.530;2022-08-21T11:11:39;3.67;;;3.37;;
2259;SDS011;333;48.800;9.530;2022-08-21T11:14:09;4.33;;;3.93;;
2259;SDS011;333;48.800;9.530;2022-08-21T11:16:40;4.40;;;4.00;;
2259;SDS011;333;48.800;9.530;2022-08-21T11:19:09;4.37;;;4.07;;
2259;SDS011;333;48.800;9.530;2022-08-21T11:21:41;3.50;;;3.30;;
2259;SDS011;333;48.800;9.530;2022-08-21T11:24:14;3.83;;;3.40;;
2259;SDS011;333;48.800;9.530;2022-08-21T11:26:45;4.57;;;4.13;;
2259;SDS011;333;48.800;9.530;2022-08-21T11:29:16;4.33;;;3.93;;
2259;SDS011;333;48.800;9.530;2022-08-21T11:31:47;5.47;;;4.43;;
2259;SDS011;333;48.800;9.530;2022-08-21T11:34:21;3.03;;;2.77;;
2259;SDS011;333;48.800;9.530;2022-08-21T11:36:54;4.33;;;3.30;;
2259;SDS011;333;48.800;9.530;2022-08-21T11:39:25;4.03;;;3.70;;
2259;SDS011;333;48.800;9.530;2022-08-21T11:41:54;4.03;;;3.07;;
2259;SDS011;333;48.800;9.530;2022-08-21T11:44:26;3.90;;;3.60;;
2259;SDS011;333;48.800;9.530;2022-08-21T11:47:00;4.70;;;3.67;;
2259;SDS011;333;48.800;9.530;2022-08-21T11:49:38;3.83;;;3.37;;
2259;SDS011;333;48.800;9.530;2022-08-21T11:52:09;5.03;;;3.90;;
2259;SDS011;333;48.800;9.530;2022-08-21T11:54:38;3.20;;;2.90;;
2259;SDS011;333;48.800;9.530;2022-08-21T11:57:14;3.80;;;3.50;;
2259;SDS011;333;48.800;9.530;2022-08-21T11:59:45;3.27;;;2.93;;
2259;SDS011;333;48.800;9.530;2022-08-21T12:02:15;6.10;;;3.67;;
2259;SDS011;333;48.800;9.530;2022-08-21T12:04:47;8.17;;;4.27;;
2259;SDS011;333;48.800;9.530;2022-08-21T12:07:27;4.10;;;3.40;;
2259;SDS011;333;48.800;9.530;2022-08-21T12:09:56;4.40;;;3.40;;
2259;SDS011;333;48.800;9.530;2022-08-21T12:12:25;4.00;;;2.97;;
2259;SDS011;333;48.800;9.530;2022-08-21T12:15:04;3.80;;;3.50;;
2259;SDS011;333;48.800;9.530;2022-08-21T12:17:36;3.30;;;2.90;;
2259;SDS011;333;48.800;9.530;2022-08-21T12:20:15;7.63;;;3.13;;
2259;SDS011;333;48.800;9.530;2022-08-21T12:22:49;3.40;;;3.07;;
2259;SDS011;333;48.800;9.530;2022-08-21T12:25:19;4.43;;;3.07;;
2259;SDS011;333;48.800;9.530;2022-08-21T12:27:47;3.20;;;2.90;;
2259;SDS011;333;48.800;9.530;2022-08-21T12:30:20;6.83;;;2.60;;
2259;SDS011;333;48.800;9.530;2022-08-21T12:32:54;2.90;;;2.70;;
2259;SDS011;333;48.800;9.530;2022-08-21T12:35:24;3.23;;;3.00;;
2259;SDS011;333;48.800;9.530;2022-08-21T12:37:56;2.47;;;2.27;;
2259;SDS011;333;48.800;9.530;2022-08-21T12:40:25;2.87;;;2.67;;
2259;SDS011;333;48.800;9.530;2022-08-21T12:42:55;2.83;;;2.63;;
2259;SDS011;333;48.800;9.530;2022-08-21T12:45:29;4.20;;;3.10;;
2259;SDS011;333;48.800;9.530;2022-08-21T12:47:58;4.00;;;3.60;;
2259;SDS011;333;48.800;9.530;2022-08-21T12:50:29;3.07;;;2.87;;
2259;SDS011;333;48.800;9.530;2022-08-21T12:53:02;3.80;;;3.43;;
2259;SDS011;333;48.800;9.530;2022-08-21T12:55:32;3.60;;;3.30;;
2259;SDS011;333;48.800;9.530;2022-08-21T12:57:59;3.40;;;3.20;;
2259;SDS011;333;48.800;9.530;2022-08-21T13:00:27;3.07;;;2.77;;
2259;SDS011;333;48.800;9.530;2022-08-21T13:02:55;5.30;;;3.43;;
2259;SDS011;333;48.800;9.530;2022-08-21T13:05:26;4.70;;;3.13;;
2259;SDS011;333;48.800;9.530;2022-08-21T13:07:54;5.57;;;3.57;;
2259;SDS011;333;48.800;9.530;2022-08-21T13:10:24;3.90;;;3.60;;
2259;SDS011;333;48.800;9.530;2022-08-21T13:12:53;3.60;;;2.90;;
2259;SDS011;333;48.800;9.530;2022-08-21T13:15:25;4.80;;;2.83;;
2259;SDS011;333;48.800;9.530;2022-08-21T13:17:52;4.40;;;3.47;;
2259;SDS011;333;48.800;9.530;2022-08-21T13:20:20;3.53;;;3.33;;
2259;SDS011;333;48.800;9.530;2022-08-21T13:22:49;3.30;;;3.00;;
2259;SDS011;333;48.800;9.530;2022-08-21T13:25:18;3.03;;;2.77;;
2259;SDS011;333;48.800;9.530;2022-08-21T13:27:57;2.93;;;2.73;;
2259;SDS011;333;48.800;9.530;2022-08-21T13:30:24;3.80;;;3.50;;
2259;SDS011;333;48.800;9.530;2022-08-21T13:32:52;2.83;;;2.63;;
2259;SDS011;333;48.800;9.530;2022-08-21T13:35:20;4.10;;;3.70;;
2259;SDS011;333;48.800;9.530;2022-08-21T13:37:48;3.57;;;3.20;;
2259;SDS011;333;48.800;9.530;2022-08-21T13:40:18;3.67;;;3.37;;
2259;SDS011;333;48.800;9.530;2022-08-21T13:42:47;3.20;;;3.00;;
2259;SDS011;333;48.800;9.530;2022-08-21T13:45:16;3.20;;;2.80;;
2259;SDS011;333;48.800;9.530;2022-08-21T13:47:43;4.67;;;3.60;;
2259;SDS011;333;48.800;9.530;2022-08-21T13:50:13;3.07;;;2.70;;
2259;SDS011;333;48.800;9.530;2022-08-21T13:52:46;3.33;;;3.03;;
2259;SDS011;333;48.800;9.530;2022-08-21T13:55:15;3.17;;;2.93;;
2259;SDS011;333;48.800;9.530;2022-08-21T13:57:42;3.90;;;3.10;;
2259;SDS011;333;48.800;9.530;2022-08-21T14:00:13;3.83;;;3.40;;
2259;SDS011;333;48.800;9.530;2022-08-21T14:02:41;4.00;;;2.80;;
2259;SDS011;333;48.800;9.530;2022-08-21T14:05:14;3.40;;;2.87;;
2259;SDS011;333;48.800;9.530;2022-08-21T14:07:42;4.20;;;3.53;;
2259;SDS011;333;48.800;9.530;2022-08-21T14:10:12;3.33;;;3.07;;
2259;SDS011;333;48.800;9.530;2022-08-21T14:12:41;3.40;;;3.10;;
2259;SDS011;333;48.800;9.530;2022-08-21T14:15:09;4.63;;;3.03;;
2259;SDS011;333;48.800;9.530;2022-08-21T14:17:39;3.40;;;3.10;;
2259;SDS011;333;48.800;9.530;2022-08-21T14:20:09;4.60;;;3.40;;
2259;SDS011;333;48.800;9.530;2022-08-21T14:22:37;3.30;;;3.10;;
2259;SDS011;333;48.800;9.530;2022-08-21T14:25:06;5.60;;;4.10;;
2259;SDS011;333;48.800;9.530;2022-08-21T14:27:33;3.80;;;3.50;;
2259;SDS011;333;48.800;9.530;2022-08-21T14:30:03;3.30;;;3.03;;
2259;SDS011;333;48.800;9.530;2022-08-21T14:32:37;4.40;;;3.20;;
2259;SDS011;333;48.800;9.530;2022-08-21T14:35:07;3.60;;;3.30;;
2259;SDS011;333;48.800;9.530;2022-08-21T14:37:35;4.13;;;3.03;;
2259;SDS011;333;48.800;9.530;2022-08-21T14:40:03;4.90;;;3.17;;
2259;SDS011;333;48.800;9.530;2022-08-21T14:42:30;3.57;;;3.27;;
2259;SDS011;333;48.800;9.530;2022-08-21T14:45:00;3.43;;;3.10;;
2259;SDS011;333;48.800;9.530;2022-08-21T14:47:27;3.10;;;2.80;;
2259;SDS011;333;48.800;9.530;2022-08-21T14:49:55;4.13;;;3.73;;
2259;SDS011;333;48.800;9.530;2022-08-21T14:52:23;4.40;;;2.50;;
2259;SDS011;333;48.800;9.530;2022-08-21T14:54:50;9.33;;;3.80;;
2259;SDS011;333;48.800;9.530;2022-08-21T14:57:17;5.47;;;3.33;;
2259;SDS011;333;48.800;9.530;2022-08-21T14:59:45;3.93;;;3.03;;
2259;SDS011;333;48.800;9.530;2022-08-21T15:02:12;4.67;;;3.33;;
2259;SDS011;333;48.800;9.530;2022-08-21T15:04:39;4.17;;;3.87;;
2259;SDS011;333;48.800;9.530;2022-08-21T15:07:07;3.87;;;3.57;;
2259;SDS011;333;48.800;9.530;2022-08-21T15:09:36;4.40;;;2.70;;
2259;SDS011;333;48.800;9.530;2022-08-21T15:12:03;4.00;;;2.90;;
2259;SDS011;333;48.800;9.530;2022-08-21T15:14:32;3.77;;;3.27;;
2259;SDS011;333;48.800;9.530;2022-08-21T15:16:59;2.83;;;2.63;;
2259;SDS011;333;48.800;9.530;2022-08-21T15:19:28;4.50;;;3.53;;
2259;SDS011;333;48.800;9.530;2022-08-21T15:21:56;5.47;;;3.53;;
2259;SDS011;333;48.800;9.530;2022-08-21T15:24:23;3.33;;;2.90;;
2259;SDS011;333;48.800;9.530;2022-08-21T15:26:52;4.37;;;3.47;;
2259;SDS011;333;48.800;9.530;2022-08-21T15:29:19;3.50;;;3.20;;
2259;SDS011;333;48.800;9.530;2022-08-21T15:31:49;5.07;;;2.70;;
2259;SDS011;333;48.800;9.530;2022-08-21T15:34:17;5.33;;;3.50;;
2259;SDS011;333;48.800;9.530;2022-08-21T15:36:44;3.67;;;3.17;;
2259;SDS011;333;48.800;9.530;2022-08-21T15:39:11;6.90;;;3.10;;
2259;SDS011;333;48.800;9.530;2022-08-21T15:41:38;3.00;;;2.80;;